Time;durP1;ratioP1;P1;durP2;ratioP2;P2;SDS_P1;SDS_P2;PMS_P1;PMS_P2;Temp;Humidity;BMP_temperature;BMP_pressure;BME280_temperature;BME280_humidity;BME280_pressure;Samples;Min_cycle;Max_cycle;Signal;HPM_P1;HPM_P2
2023/07/01 00:00:39;;;;;;;11.20;6.93;;;17.50;99.90;;;;;;5135498;27;20102;-71
2023/07/01 00:03:07;;;;;;;13.35;8.23;;;17.50;99.90;;;;;;5135157;27;20027;-70
2023/07/01 00:05:33;;;;;;;13.00;8.38;;;17.50;99.90;;;;;;5117477;27;20485;-70
2023/07/01 00:07:58;;;;;;;13.02;8.00;;;17.40;99.90;;;;;;5135884;27;20042;-70
2023/07/01 00:10:25;;;;;;;13.80;8.27;;;17.40;99.90;;;;;;5117017;27;20116;-70
2023/07/01 00:12:51;;;;;;;12.15;8.13;;;17.30;99.90;;;;;;5115162;28;20512;-70
2023/07/01 00:15:17;;;;;;;16.60;8.07;;;17.30;99.90;;;;;;5115074;28;20043;-70
2023/07/01 00:17:42;;;;;;;12.63;8.13;;;17.30;99.90;;;;;;5114949;28;20028;-70
2023/07/01 00:20:09;;;;;;;12.73;7.75;;;17.30;99.90;;;;;;5096926;28;20024;-70
2023/07/01 00:22:34;;;;;;;11.65;7.75;;;17.20;99.90;;;;;;5096740;28;20032;-70
2023/07/01 00:25:00;;;;;;;11.63;7.15;;;17.30;99.90;;;;;;5114743;28;20027;-70
2023/07/01 00:27:26;;;;;;;12.52;7.38;;;17.30;99.90;;;;;;5114735;28;20027;-70
2023/07/01 00:29:51;;;;;;;11.48;7.13;;;17.30;99.90;;;;;;5115135;28;20070;-70
2023/07/01 00:32:17;;;;;;;11.05;7.13;;;17.30;99.90;;;;;;5096486;28;20035;-70
2023/07/01 00:34:43;;;;;;;10.32;7.03;;;17.30;99.90;;;;;;5115321;28;20027;-70
2023/07/01 00:37:08;;;;;;;11.50;7.72;;;17.40;99.90;;;;;;5114798;28;20035;-70
2023/07/01 00:39:34;;;;;;;11.35;7.43;;;17.40;99.90;;;;;;5114695;28;20027;-70
2023/07/01 00:42:00;;;;;;;14.00;8.48;;;17.40;99.90;;;;;;5113798;28;20050;-70
2023/07/01 00:44:25;;;;;;;12.15;7.60;;;17.40;99.90;;;;;;5114696;28;20157;-70
2023/07/01 00:46:51;;;;;;;13.85;8.27;;;17.40;99.90;;;;;;5114329;28;20106;-70
2023/07/01 00:49:17;;;;;;;12.85;7.75;;;17.40;99.90;;;;;;5114499;28;20106;-70
2023/07/01 00:51:43;;;;;;;12.73;8.45;;;17.40;99.90;;;;;;5114487;28;20020;-70
2023/07/01 00:54:09;;;;;;;14.02;8.15;;;17.30;99.90;;;;;;5114392;28;20114;-70
2023/07/01 00:56:34;;;;;;;11.07;7.40;;;17.30;99.90;;;;;;5114382;28;20085;-70
2023/07/01 00:59:01;;;;;;;10.57;7.03;;;17.30;99.90;;;;;;5114666;28;20041;-70
2023/07/01 01:01:34;;;;;;;12.52;8.35;;;17.30;99.90;;;;;;5114327;28;20016;-70
2023/07/01 01:04:05;;;;;;;12.75;8.13;;;17.30;99.90;;;;;;5114526;28;20031;-70
2023/07/01 01:06:43;;;;;;;11.70;7.88;;;17.30;99.90;;;;;;5114773;28;20114;-70
2023/07/01 01:09:15;;;;;;;12.35;7.47;;;17.30;99.90;;;;;;5114238;27;20020;-70
2023/07/01 01:11:45;;;;;;;12.45;8.00;;;17.30;99.90;;;;;;5114384;28;20040;-70
2023/07/01 01:14:12;;;;;;;14.20;8.45;;;17.30;99.90;;;;;;5114031;28;20114;-70
2023/07/01 01:16:40;;;;;;;14.30;7.40;;;17.30;99.90;;;;;;5113876;28;20035;-70
2023/07/01 01:19:19;;;;;;;12.10;8.00;;;17.30;99.90;;;;;;5114350;28;20031;-70
2023/07/01 01:21:52;;;;;;;14.63;8.30;;;17.10;99.90;;;;;;5114364;28;20069;-71
2023/07/01 01:24:20;;;;;;;13.32;8.13;;;17.10;99.90;;;;;;5113847;28;20054;-70
2023/07/01 01:26:50;;;;;;;12.30;8.35;;;17.00;99.90;;;;;;5114436;28;20023;-70
2023/07/01 01:29:16;;;;;;;13.50;8.30;;;17.00;99.90;;;;;;5113013;28;20423;-71
2023/07/01 01:31:41;;;;;;;12.70;7.70;;;17.00;99.90;;;;;;5112604;28;20020;-70
2023/07/01 01:34:07;;;;;;;12.55;7.82;;;17.00;99.90;;;;;;5113769;28;20503;-70
2023/07/01 01:37:05;;;;;;;12.55;8.30;;;17.00;99.90;;;;;;5095677;28;20067;-70
2023/07/01 01:39:38;;;;;;;14.30;8.40;;;17.00;99.90;;;;;;5094359;28;20035;-70
2023/07/01 01:42:10;;;;;;;11.70;8.43;;;17.00;99.90;;;;;;5113778;28;20043;-70
2023/07/01 01:44:46;;;;;;;13.57;8.20;;;17.00;99.90;;;;;;5095069;28;20031;-70
2023/07/01 01:47:15;;;;;;;12.60;8.43;;;17.00;99.90;;;;;;5112600;28;20032;-70
2023/07/01 01:49:43;;;;;;;13.80;7.22;;;17.00;99.90;;;;;;5113944;28;20031;-70
2023/07/01 01:52:12;;;;;;;10.55;7.28;;;17.00;99.90;;;;;;5113515;28;20389;-70
2023/07/01 01:54:39;;;;;;;13.50;7.28;;;17.00;99.90;;;;;;5115797;28;20043;-70
2023/07/01 01:57:05;;;;;;;10.77;7.28;;;17.00;99.90;;;;;;5133796;27;20027;-70
2023/07/01 01:59:31;;;;;;;10.73;6.63;;;16.90;99.90;;;;;;5138417;27;20024;-70
2023/07/01 02:01:57;;;;;;;10.40;6.97;;;16.90;99.90;;;;;;5138140;27;20038;-71
2023/07/01 02:04:22;;;;;;;9.95;6.80;;;16.90;99.90;;;;;;5138292;27;20035;-70
2023/07/01 02:06:48;;;;;;;10.95;6.88;;;16.90;99.90;;;;;;5138589;27;20019;-70
2023/07/01 02:09:14;;;;;;;9.13;5.93;;;16.90;99.90;;;;;;5138141;27;20030;-70
2023/07/01 02:11:39;;;;;;;7.93;5.30;;;16.90;99.90;;;;;;5138153;27;20042;-70
2023/07/01 02:14:05;;;;;;;8.55;5.80;;;16.90;99.90;;;;;;5138049;27;20383;-70
2023/07/01 02:16:33;;;;;;;8.90;5.35;;;16.90;99.90;;;;;;5137819;27;20070;-70
2023/07/01 02:18:59;;;;;;;9.60;5.65;;;16.90;99.90;;;;;;5137972;27;20366;-70
2023/07/01 02:21:25;;;;;;;9.20;5.35;;;16.80;99.90;;;;;;5138024;27;20037;-70
2023/07/01 02:23:50;;;;;;;8.75;5.28;;;16.80;99.90;;;;;;5137889;27;20524;-70
2023/07/01 02:26:16;;;;;;;9.95;5.95;;;16.80;99.90;;;;;;5137948;27;20062;-70
2023/07/01 02:28:42;;;;;;;8.95;5.85;;;16.80;99.90;;;;;;5138069;27;20055;-70
2023/07/01 02:31:07;;;;;;;8.57;5.88;;;16.80;99.90;;;;;;5137608;27;20038;-70
2023/07/01 02:33:33;;;;;;;9.15;6.30;;;16.80;99.90;;;;;;5137729;27;20085;-70
2023/07/01 02:35:59;;;;;;;10.68;6.63;;;16.90;99.90;;;;;;5137637;27;20028;-70
2023/07/01 02:38:24;;;;;;;10.27;6.18;;;16.90;99.90;;;;;;5119211;27;20027;-70
2023/07/01 02:40:50;;;;;;;11.02;6.32;;;16.90;99.90;;;;;;5137918;27;20392;-70
2023/07/01 02:43:15;;;;;;;10.32;6.82;;;16.90;99.90;;;;;;5138181;27;20102;-70
2023/07/01 02:45:41;;;;;;;9.65;6.47;;;16.90;99.90;;;;;;5137800;27;20475;-70
2023/07/01 02:48:07;;;;;;;12.20;6.45;;;16.90;99.90;;;;;;5137284;27;20038;-70
2023/07/01 02:50:32;;;;;;;7.72;4.95;;;16.90;99.90;;;;;;5137491;27;20107;-70
2023/07/01 02:52:58;;;;;;;8.10;5.45;;;16.80;99.90;;;;;;5137379;27;20366;-70
2023/07/01 02:55:28;;;;;;;9.60;5.30;;;16.80;99.90;;;;;;5137302;27;20050;-70
2023/07/01 02:57:54;;;;;;;9.50;5.40;;;16.80;99.90;;;;;;5137456;27;20023;-70
2023/07/01 03:00:21;;;;;;;7.53;4.88;;;16.80;99.90;;;;;;5137292;27;20029;-71
2023/07/01 03:02:47;;;;;;;8.73;5.22;;;16.80;99.90;;;;;;5137005;27;20031;-70
2023/07/01 03:05:12;;;;;;;6.72;4.75;;;16.80;99.90;;;;;;5137418;27;20545;-71
2023/07/01 03:07:41;;;;;;;8.32;4.53;;;16.80;99.90;;;;;;5137397;27;20089;-71
2023/07/01 03:10:07;;;;;;;5.10;3.65;;;16.80;99.90;;;;;;5137023;27;20490;-71
2023/07/01 03:12:32;;;;;;;5.85;3.80;;;16.70;99.90;;;;;;5136961;27;20065;-71
2023/07/01 03:14:58;;;;;;;7.22;4.50;;;16.70;99.90;;;;;;5136857;27;20035;-71
2023/07/01 03:17:24;;;;;;;7.65;3.55;;;16.70;99.90;;;;;;5136697;27;20473;-71
2023/07/01 03:19:50;;;;;;;5.20;3.50;;;16.60;99.90;;;;;;5136912;27;20028;-70
2023/07/01 03:22:16;;;;;;;6.28;3.78;;;16.60;99.90;;;;;;5137098;27;20491;-70
2023/07/01 03:24:42;;;;;;;6.43;3.80;;;16.60;99.90;;;;;;5136900;27;20114;-70
2023/07/01 03:27:07;;;;;;;4.68;3.15;;;16.60;99.90;;;;;;5136711;27;20027;-70
2023/07/01 03:29:33;;;;;;;7.32;3.83;;;16.60;99.90;;;;;;5137220;27;20027;-71
2023/07/01 03:31:59;;;;;;;5.40;3.38;;;16.60;99.90;;;;;;5136434;27;20388;-71
2023/07/01 03:34:25;;;;;;;6.57;4.22;;;16.60;99.90;;;;;;5137126;27;20505;-72
2023/07/01 03:36:51;;;;;;;8.20;4.65;;;16.60;99.90;;;;;;5136617;27;20023;-72
2023/07/01 03:39:17;;;;;;;8.32;4.65;;;16.60;99.90;;;;;;5136412;27;20110;-72
2023/07/01 03:41:42;;;;;;;8.85;4.53;;;16.60;99.90;;;;;;5136794;27;20027;-72
2023/07/01 03:44:08;;;;;;;6.18;4.07;;;16.60;99.90;;;;;;5136387;27;20031;-72
2023/07/01 03:46:34;;;;;;;4.90;3.30;;;16.50;99.90;;;;;;5136114;27;20019;-71
2023/07/01 03:48:59;;;;;;;6.38;4.05;;;16.50;99.90;;;;;;5136636;27;20031;-72
2023/07/01 03:51:26;;;;;;;6.28;4.00;;;16.50;99.90;;;;;;5136417;27;20023;-72
2023/07/01 03:53:52;;;;;;;5.55;3.63;;;16.50;99.90;;;;;;5136167;27;20080;-72
2023/07/01 03:56:18;;;;;;;6.90;4.63;;;16.50;99.90;;;;;;5136209;27;20015;-72
2023/07/01 03:58:43;;;;;;;7.32;4.95;;;16.50;99.90;;;;;;5136148;27;20384;-72
2023/07/01 04:01:09;;;;;;;6.22;4.60;;;16.50;99.90;;;;;;5135793;27;20019;-71
2023/07/01 04:03:37;;;;;;;9.52;6.05;;;16.40;99.90;;;;;;5136324;27;20019;-71
2023/07/01 04:06:02;;;;;;;9.23;5.85;;;16.50;99.90;;;;;;5135988;27;20023;-72
2023/07/01 04:08:28;;;;;;;12.68;8.45;;;16.50;99.90;;;;;;5136269;27;20027;-72
2023/07/01 04:10:55;;;;;;;11.70;7.50;;;16.50;99.90;;;;;;5135950;27;20030;-72
2023/07/01 04:13:20;;;;;;;15.77;10.05;;;16.50;99.90;;;;;;5135919;27;20062;-73
2023/07/01 04:15:46;;;;;;;18.13;11.63;;;16.50;99.90;;;;;;5135801;27;20028;-72
2023/07/01 04:18:12;;;;;;;19.25;12.40;;;16.40;99.90;;;;;;5134858;27;20023;-72
2023/07/01 04:20:37;;;;;;;18.60;11.55;;;16.40;99.90;;;;;;5135680;27;20027;-72
2023/07/01 04:23:03;;;;;;;19.17;11.80;;;16.40;99.90;;;;;;5135641;27;20031;-72
2023/07/01 04:25:28;;;;;;;18.48;11.75;;;16.30;99.90;;;;;;5133775;27;20026;-71
2023/07/01 04:27:54;;;;;;;16.48;11.40;;;16.30;99.90;;;;;;5135419;27;20027;-71
2023/07/01 04:30:20;;;;;;;15.63;10.50;;;16.20;99.90;;;;;;5134454;27;20504;-72
2023/07/01 04:32:45;;;;;;;16.73;10.90;;;16.20;99.90;;;;;;5133697;27;20024;-71
2023/07/01 04:35:11;;;;;;;17.38;11.13;;;16.20;99.90;;;;;;5116312;27;20155;-72
2023/07/01 04:37:37;;;;;;;15.75;10.55;;;16.20;99.90;;;;;;5117007;27;20038;-71
2023/07/01 04:40:04;;;;;;;16.25;10.50;;;16.20;99.90;;;;;;5131436;27;20023;-71
2023/07/01 04:42:31;;;;;;;17.48;11.15;;;16.20;99.90;;;;;;5133779;27;20027;-71
2023/07/01 04:44:57;;;;;;;17.33;11.10;;;16.20;99.90;;;;;;5132726;27;20493;-72
2023/07/01 04:47:23;;;;;;;17.33;10.75;;;16.20;99.90;;;;;;5123832;27;20087;-71
2023/07/01 04:49:52;;;;;;;17.27;11.35;;;16.20;99.90;;;;;;5134376;27;20388;-72
2023/07/01 04:52:19;;;;;;;16.85;10.68;;;16.20;99.90;;;;;;5133750;27;20023;-71
2023/07/01 04:54:45;;;;;;;18.42;11.57;;;16.20;99.90;;;;;;5135676;27;20417;-71
2023/07/01 04:57:11;;;;;;;18.95;11.23;;;16.20;99.90;;;;;;5135043;27;20046;-72
2023/07/01 04:59:36;;;;;;;18.33;11.90;;;16.20;99.90;;;;;;5116321;27;20023;-71
2023/07/01 05:02:03;;;;;;;18.95;11.82;;;16.20;99.90;;;;;;5134546;27;20110;-72
2023/07/01 05:04:28;;;;;;;17.90;11.15;;;16.20;99.90;;;;;;5134872;27;20019;-72
2023/07/01 05:06:54;;;;;;;18.23;11.98;;;16.20;99.90;;;;;;5134869;27;20027;-72
2023/07/01 05:09:19;;;;;;;16.02;10.80;;;16.20;99.90;;;;;;5134809;27;20030;-72
2023/07/01 05:11:45;;;;;;;15.65;10.73;;;16.20;99.90;;;;;;5135036;27;20031;-72
2023/07/01 05:14:11;;;;;;;17.38;10.60;;;16.20;99.90;;;;;;5134615;27;20034;-71
2023/07/01 05:16:36;;;;;;;19.33;12.32;;;16.20;99.90;;;;;;5135023;27;20031;-72
2023/07/01 05:19:02;;;;;;;19.77;11.73;;;16.20;99.90;;;;;;5135072;27;20110;-71
2023/07/01 05:21:30;;;;;;;20.20;12.82;;;16.20;99.90;;;;;;5134800;27;20511;-72
2023/07/01 05:23:56;;;;;;;23.65;14.27;;;16.10;99.90;;;;;;5134689;27;20106;-72
2023/07/01 05:26:22;;;;;;;17.85;12.15;;;16.10;99.90;;;;;;5134962;27;20043;-73
2023/07/01 05:28:47;;;;;;;18.90;12.00;;;16.10;99.90;;;;;;5134580;27;20087;-73
2023/07/01 05:31:13;;;;;;;21.35;12.70;;;16.10;99.90;;;;;;5134486;27;20069;-73
2023/07/01 05:33:39;;;;;;;20.02;12.25;;;16.00;99.90;;;;;;5134483;27;20031;-72
2023/07/01 05:36:05;;;;;;;20.35;13.32;;;16.10;99.90;;;;;;5134517;27;20103;-73
2023/07/01 05:38:30;;;;;;;27.90;16.88;;;16.00;99.90;;;;;;5134570;27;20096;-72
2023/07/01 05:40:56;;;;;;;18.27;11.75;;;16.00;99.90;;;;;;5134897;27;20028;-72
2023/07/01 05:43:21;;;;;;;17.73;11.15;;;16.00;99.90;;;;;;5134955;27;20023;-73
2023/07/01 05:45:47;;;;;;;15.32;10.05;;;15.90;99.90;;;;;;5135172;27;20137;-72
2023/07/01 05:48:13;;;;;;;16.92;10.52;;;15.90;99.90;;;;;;5135374;27;20105;-72
2023/07/01 05:50:39;;;;;;;16.90;10.85;;;15.90;99.90;;;;;;5116447;28;20023;-71
2023/07/01 05:53:05;;;;;;;21.10;12.98;;;15.90;99.90;;;;;;5134426;28;20027;-72
2023/07/01 05:55:30;;;;;;;19.10;12.60;;;15.90;99.90;;;;;;5134408;28;20030;-71
2023/07/01 05:57:56;;;;;;;17.67;11.68;;;15.90;99.90;;;;;;5134359;28;20028;-73
2023/07/01 06:00:22;;;;;;;16.30;10.43;;;16.00;99.90;;;;;;5134939;28;20027;-73
2023/07/01 06:02:47;;;;;;;15.07;9.18;;;16.00;99.90;;;;;;5117405;28;20046;-72
2023/07/01 06:05:13;;;;;;;14.55;9.15;;;16.00;99.90;;;;;;5136914;28;20507;-73
2023/07/01 06:07:39;;;;;;;12.57;8.35;;;16.00;99.90;;;;;;5136364;28;20507;-72
2023/07/01 06:10:04;;;;;;;14.40;8.88;;;16.00;99.90;;;;;;5135865;28;20568;-72
2023/07/01 06:12:30;;;;;;;15.85;10.23;;;16.00;99.90;;;;;;5135927;28;20039;-72
2023/07/01 06:14:56;;;;;;;14.57;9.50;;;16.00;99.90;;;;;;5133989;28;20035;-72
2023/07/01 06:17:21;;;;;;;14.35;8.68;;;16.00;99.90;;;;;;5134861;28;20027;-72
2023/07/01 06:19:47;;;;;;;15.45;9.32;;;16.00;99.90;;;;;;5135487;28;20083;-73
2023/07/01 06:22:13;;;;;;;16.63;10.23;;;16.00;99.90;;;;;;5135761;28;20038;-73
2023/07/01 06:24:38;;;;;;;13.57;9.15;;;16.00;99.90;;;;;;5134397;28;20035;-72
2023/07/01 06:27:04;;;;;;;14.07;8.93;;;15.90;99.90;;;;;;5134599;28;20023;-73
2023/07/01 06:29:30;;;;;;;13.60;8.40;;;15.90;99.90;;;;;;5134161;28;20528;-73
2023/07/01 06:31:55;;;;;;;14.68;9.48;;;16.00;99.90;;;;;;5133777;28;20062;-72
2023/07/01 06:34:21;;;;;;;14.18;9.30;;;16.00;99.90;;;;;;5134046;28;20028;-72
2023/07/01 06:36:47;;;;;;;15.27;10.27;;;16.00;99.90;;;;;;5134052;28;20035;-73
2023/07/01 06:39:13;;;;;;;14.95;9.77;;;16.00;99.90;;;;;;5132311;27;20028;-71
2023/07/01 06:41:39;;;;;;;13.07;8.02;;;15.90;99.90;;;;;;5133822;27;20019;-71
2023/07/01 06:44:05;;;;;;;12.65;8.35;;;15.90;99.90;;;;;;5134960;27;20028;-72
2023/07/01 06:46:30;;;;;;;11.95;7.97;;;15.90;99.90;;;;;;5135200;27;20473;-72
2023/07/01 06:48:56;;;;;;;10.98;6.95;;;16.00;99.90;;;;;;5135218;27;20039;-72
2023/07/01 06:51:22;;;;;;;11.82;6.93;;;16.00;99.90;;;;;;5135712;27;20101;-72
2023/07/01 06:53:47;;;;;;;11.13;7.35;;;16.00;99.90;;;;;;5135997;27;20114;-72
2023/07/01 06:56:13;;;;;;;10.68;6.97;;;16.00;99.90;;;;;;5137820;27;20058;-72
2023/07/01 06:58:40;;;;;;;11.02;6.65;;;16.00;99.90;;;;;;5119617;27;20115;-73
2023/07/01 07:01:06;;;;;;;12.07;6.40;;;16.00;99.90;;;;;;5137554;27;20024;-73
2023/07/01 07:03:33;;;;;;;9.90;5.80;;;16.00;99.90;;;;;;5137390;27;20079;-72
2023/07/01 07:05:59;;;;;;;8.43;5.05;;;16.00;99.90;;;;;;5137133;27;20069;-72
2023/07/01 07:08:25;;;;;;;7.00;3.80;;;15.90;99.90;;;;;;5137088;27;20027;-72
2023/07/01 07:10:51;;;;;;;5.63;3.67;;;16.00;99.90;;;;;;5137432;27;20110;-73
2023/07/01 07:13:17;;;;;;;4.53;2.70;;;16.00;99.90;;;;;;5137442;27;20042;-73
2023/07/01 07:15:43;;;;;;;3.50;1.90;;;15.90;99.90;;;;;;5137193;27;20505;-72
2023/07/01 07:18:10;;;;;;;3.53;2.35;;;15.90;99.90;;;;;;5136848;27;20031;-72
2023/07/01 07:20:37;;;;;;;3.17;1.90;;;15.90;99.90;;;;;;5137262;27;20023;-73
2023/07/01 07:23:05;;;;;;;3.53;2.10;;;15.80;99.90;;;;;;5136876;27;20031;-73
2023/07/01 07:25:34;;;;;;;4.60;2.13;;;15.80;99.90;;;;;;5136871;27;20019;-72
2023/07/01 07:28:01;;;;;;;3.78;1.92;;;15.80;99.90;;;;;;5137077;27;20035;-73
2023/07/01 07:30:26;;;;;;;3.70;1.80;;;15.80;99.90;;;;;;5137303;27;20027;-73
2023/07/01 07:32:52;;;;;;;3.28;1.70;;;15.90;99.90;;;;;;5136535;27;20477;-71
2023/07/01 07:35:18;;;;;;;3.38;1.80;;;15.90;99.90;;;;;;5136523;27;20061;-72
2023/07/01 07:37:44;;;;;;;3.58;2.28;;;15.90;99.90;;;;;;5137182;27;20496;-73
2023/07/01 07:40:11;;;;;;;3.30;1.75;;;15.90;99.90;;;;;;5136502;27;20055;-72
2023/07/01 07:42:37;;;;;;;3.28;1.70;;;15.90;99.90;;;;;;5118104;27;20027;-73
2023/07/01 07:45:06;;;;;;;2.40;1.50;;;15.90;99.90;;;;;;5136670;27;20027;-72
2023/07/01 07:47:31;;;;;;;2.80;1.52;;;16.00;99.90;;;;;;5136497;27;20055;-72
2023/07/01 07:49:57;;;;;;;3.42;1.60;;;16.00;99.90;;;;;;5137064;27;20468;-73
2023/07/01 07:52:23;;;;;;;3.25;1.80;;;16.00;99.90;;;;;;5135188;27;20197;-73
2023/07/01 07:54:49;;;;;;;3.75;1.73;;;16.10;99.90;;;;;;5136794;27;20019;-73
2023/07/01 07:57:14;;;;;;;3.75;1.90;;;16.10;99.90;;;;;;5136524;27;20034;-72
2023/07/01 07:59:41;;;;;;;3.63;2.13;;;16.10;99.90;;;;;;5136539;27;20052;-73
2023/07/01 08:02:08;;;;;;;5.15;2.40;;;16.10;99.90;;;;;;5135912;27;20393;-72
2023/07/01 08:04:33;;;;;;;5.15;2.63;;;16.10;99.90;;;;;;5117637;27;20020;-73
2023/07/01 08:06:59;;;;;;;3.40;1.92;;;16.10;99.90;;;;;;5135953;27;20015;-73
2023/07/01 08:09:25;;;;;;;3.70;2.05;;;16.10;99.90;;;;;;5135932;27;20019;-73
2023/07/01 08:11:51;;;;;;;2.83;1.85;;;16.10;99.90;;;;;;5135984;27;20042;-72
2023/07/01 08:14:19;;;;;;;4.90;2.08;;;16.00;99.90;;;;;;5135501;27;20035;-72
2023/07/01 08:16:45;;;;;;;2.97;1.63;;;15.80;99.90;;;;;;5135783;27;20477;-73
2023/07/01 08:19:10;;;;;;;3.05;1.80;;;15.70;99.90;;;;;;5135577;27;20042;-72
2023/07/01 08:21:37;;;;;;;2.72;1.90;;;15.70;99.90;;;;;;5135980;27;20019;-72
2023/07/01 08:24:07;;;;;;;4.25;1.80;;;15.60;99.90;;;;;;5135825;27;20047;-71
2023/07/01 08:26:33;;;;;;;2.78;1.70;;;15.60;99.90;;;;;;5135577;27;20493;-72
2023/07/01 08:28:59;;;;;;;3.17;2.10;;;15.60;99.90;;;;;;5135846;27;20039;-72
2023/07/01 08:31:24;;;;;;;3.53;1.83;;;15.70;99.90;;;;;;5135506;27;20080;-72
2023/07/01 08:33:50;;;;;;;3.85;2.20;;;15.70;99.90;;;;;;5135065;27;20034;-71
2023/07/01 08:36:16;;;;;;;3.15;1.83;;;15.70;99.90;;;;;;5135781;27;20023;-72
2023/07/01 08:38:41;;;;;;;2.95;2.00;;;15.80;99.90;;;;;;5135372;27;20473;-71
2023/07/01 08:41:13;;;;;;;3.22;1.88;;;15.80;99.90;;;;;;5135464;27;20079;-72
2023/07/01 08:43:39;;;;;;;5.00;2.38;;;15.90;99.90;;;;;;5135550;27;20019;-72
2023/07/01 08:46:09;;;;;;;3.45;2.55;;;16.00;99.90;;;;;;5135184;27;20035;-72
2023/07/01 08:48:35;;;;;;;3.75;2.22;;;16.00;99.90;;;;;;5135373;27;20027;-71
2023/07/01 08:51:09;;;;;;;3.85;2.40;;;16.00;99.90;;;;;;5099804;27;20027;-72
2023/07/01 08:53:37;;;;;;;4.07;2.13;;;16.00;99.90;;;;;;5135010;27;20023;-72
2023/07/01 08:56:04;;;;;;;3.55;2.38;;;16.00;99.90;;;;;;5134935;27;20472;-72
2023/07/01 08:58:30;;;;;;;3.58;2.28;;;16.10;99.90;;;;;;5134965;27;20102;-72
2023/07/01 09:00:57;;;;;;;2.67;1.75;;;16.10;99.90;;;;;;5134577;27;20023;-72
2023/07/01 09:03:22;;;;;;;3.15;2.15;;;16.20;99.90;;;;;;5134372;27;20476;-71
2023/07/01 09:05:49;;;;;;;3.30;2.00;;;16.20;99.90;;;;;;5134673;27;20042;-71
2023/07/01 09:08:14;;;;;;;4.00;2.40;;;16.30;99.90;;;;;;5134405;27;20027;-71
2023/07/01 09:10:40;;;;;;;4.18;2.40;;;16.30;99.90;;;;;;5114164;28;20034;-71
2023/07/01 09:13:12;;;;;;;3.78;2.40;;;16.30;99.90;;;;;;5114561;28;20412;-72
2023/07/01 09:15:48;;;;;;;6.35;3.10;;;16.30;99.90;;;;;;5114251;28;20366;-71
2023/07/01 09:18:30;;;;;;;3.50;2.78;;;16.30;99.90;;;;;;5113963;28;20020;-71
2023/07/01 09:20:57;;;;;;;4.60;3.00;;;16.30;99.90;;;;;;5114379;28;20469;-71
2023/07/01 09:23:34;;;;;;;5.80;2.90;;;16.30;99.90;;;;;;5124370;27;20031;-71
2023/07/01 09:26:08;;;;;;;4.00;2.78;;;16.20;99.90;;;;;;5134539;27;20075;-71
2023/07/01 09:28:35;;;;;;;4.72;2.75;;;16.20;99.90;;;;;;5116126;27;20054;-71
2023/07/01 09:31:04;;;;;;;4.82;2.72;;;16.20;99.90;;;;;;5135028;27;20034;-71
2023/07/01 09:33:30;;;;;;;4.82;2.60;;;16.10;99.90;;;;;;5134107;27;20080;-71
2023/07/01 09:36:02;;;;;;;5.72;3.00;;;16.10;99.90;;;;;;5134308;27;20054;-71
2023/07/01 09:38:29;;;;;;;4.70;2.95;;;16.10;99.90;;;;;;5132168;27;20507;-71
2023/07/01 09:40:55;;;;;;;4.72;2.50;;;16.10;99.90;;;;;;5113751;28;20027;-72
2023/07/01 09:43:31;;;;;;;5.55;3.50;;;16.10;99.90;;;;;;5114174;28;20028;-71
2023/07/01 09:45:57;;;;;;;4.55;3.13;;;16.10;99.90;;;;;;5131279;27;20101;-71
2023/07/01 09:48:24;;;;;;;6.05;3.22;;;16.10;99.90;;;;;;5134005;27;20075;-71
2023/07/01 09:50:50;;;;;;;8.73;3.70;;;16.10;99.90;;;;;;5134120;28;20019;-71
2023/07/01 09:53:23;;;;;;;5.28;3.20;;;16.20;99.90;;;;;;5134718;28;20027;-70
2023/07/01 09:55:49;;;;;;;3.50;2.60;;;16.20;99.90;;;;;;5133840;28;20027;-70
2023/07/01 09:58:16;;;;;;;5.05;2.90;;;16.20;99.90;;;;;;5134008;28;20050;-70
2023/07/01 10:00:42;;;;;;;8.48;3.15;;;16.30;99.90;;;;;;5133114;28;20099;-70
2023/07/01 10:03:08;;;;;;;6.53;4.00;;;16.30;99.90;;;;;;5126614;28;20031;-70
2023/07/01 10:05:34;;;;;;;5.22;3.70;;;16.40;99.90;;;;;;5134044;28;20042;-70
2023/07/01 10:08:01;;;;;;;4.43;3.42;;;16.40;99.90;;;;;;5134032;28;20028;-70
2023/07/01 10:10:27;;;;;;;5.95;3.45;;;16.40;99.90;;;;;;5133983;28;20034;-71
2023/07/01 10:12:56;;;;;;;5.43;3.03;;;16.50;99.90;;;;;;5133954;28;20045;-71
2023/07/01 10:15:32;;;;;;;4.80;3.50;;;16.50;99.90;;;;;;5135563;27;20023;-70
2023/07/01 10:17:58;;;;;;;5.70;3.38;;;16.50;99.90;;;;;;5138086;27;20019;-71
2023/07/01 10:20:27;;;;;;;5.57;3.38;;;16.50;99.90;;;;;;5138100;27;20098;-70
2023/07/01 10:22:55;;;;;;;7.13;3.53;;;16.50;99.90;;;;;;5138278;27;20027;-71
2023/07/01 10:25:36;;;;;;;5.18;3.47;;;16.50;99.90;;;;;;5138014;27;20072;-71
2023/07/01 10:28:02;;;;;;;4.32;2.60;;;16.50;99.90;;;;;;5137919;27;20030;-71
2023/07/01 10:30:47;;;;;;;5.20;3.40;;;16.50;99.90;;;;;;5137898;27;20026;-71
2023/07/01 10:33:30;;;;;;;4.85;2.92;;;16.60;99.90;;;;;;5137725;27;20033;-71
2023/07/01 10:36:09;;;;;;;4.05;2.55;;;16.60;99.90;;;;;;5119314;27;20079;-71
2023/07/01 10:38:36;;;;;;;4.28;3.22;;;16.70;99.90;;;;;;5137666;27;20027;-71
2023/07/01 10:41:03;;;;;;;3.30;2.10;;;16.70;99.90;;;;;;5137692;27;20035;-71
2023/07/01 10:43:30;;;;;;;3.70;2.03;;;16.70;99.90;;;;;;5137921;27;20533;-71
2023/07/01 10:46:28;;;;;;;3.45;2.30;;;16.80;99.90;;;;;;5137670;27;20023;-71
2023/07/01 10:49:02;;;;;;;3.15;1.75;;;16.80;99.90;;;;;;5081137;27;20063;-71
2023/07/01 10:51:31;;;;;;;2.95;1.70;;;16.80;99.90;;;;;;5137623;27;20031;-71
2023/07/01 10:54:05;;;;;;;4.57;2.08;;;16.80;99.90;;;;;;5137343;27;20114;-71
2023/07/01 10:56:35;;;;;;;2.92;1.85;;;16.80;99.90;;;;;;5137447;27;20023;-71
2023/07/01 10:59:25;;;;;;;3.85;2.15;;;16.80;99.90;;;;;;5136887;27;20042;-72
2023/07/01 11:02:02;;;;;;;2.80;1.73;;;16.80;99.90;;;;;;5137069;27;20358;-71
2023/07/01 11:04:52;;;;;;;4.07;2.10;;;16.90;99.90;;;;;;5137045;27;20540;-71
2023/07/01 11:07:25;;;;;;;3.03;1.92;;;16.90;99.90;;;;;;5137187;27;20030;-71
2023/07/01 11:09:51;;;;;;;3.83;2.45;;;16.90;99.90;;;;;;5135804;27;20035;-71
2023/07/01 11:12:17;;;;;;;3.20;2.17;;;17.00;99.90;;;;;;5137184;27;20034;-72
2023/07/01 11:14:43;;;;;;;3.25;2.05;;;17.00;99.90;;;;;;5118463;27;20043;-72
2023/07/01 11:17:16;;;;;;;3.50;2.28;;;17.10;99.90;;;;;;5137029;27;20392;-73
2023/07/01 11:19:44;;;;;;;4.03;2.67;;;17.10;99.90;;;;;;5136759;27;20031;-72
2023/07/01 11:22:18;;;;;;;3.30;2.03;;;17.20;99.90;;;;;;5136917;27;20019;-73
2023/07/01 11:24:44;;;;;;;4.03;2.25;;;17.20;99.90;;;;;;5136825;27;20023;-72
2023/07/01 11:27:10;;;;;;;2.88;1.80;;;17.20;99.90;;;;;;5136701;27;20499;-73
2023/07/01 11:29:37;;;;;;;3.58;2.10;;;17.30;99.90;;;;;;5136760;27;20530;-73
2023/07/01 11:32:05;;;;;;;3.08;2.00;;;17.30;99.90;;;;;;5136686;27;20088;-73
2023/07/01 11:34:31;;;;;;;3.47;2.10;;;17.40;99.90;;;;;;5136410;27;20464;-72
2023/07/01 11:36:58;;;;;;;4.97;2.30;;;17.40;99.90;;;;;;5136936;27;20042;-73
2023/07/01 11:39:25;;;;;;;2.53;1.75;;;17.50;99.90;;;;;;5136487;27;20019;-73
2023/07/01 11:41:55;;;;;;;3.92;2.20;;;17.50;99.90;;;;;;5136524;27;20098;-73
2023/07/01 11:44:26;;;;;;;4.05;2.42;;;17.60;99.90;;;;;;5136473;27;20481;-73
2023/07/01 11:46:52;;;;;;;4.03;2.40;;;17.60;99.90;;;;;;5136467;27;20081;-73
2023/07/01 11:49:21;;;;;;;3.40;2.33;;;17.70;99.90;;;;;;5136263;27;20027;-72
2023/07/01 11:51:50;;;;;;;3.25;2.13;;;17.80;99.90;;;;;;5136370;27;20385;-73
2023/07/01 11:54:24;;;;;;;4.03;2.63;;;17.90;99.90;;;;;;5136613;27;20019;-73
2023/07/01 11:57:06;;;;;;;4.65;2.67;;;18.00;99.90;;;;;;5136463;27;20496;-73
2023/07/01 11:59:34;;;;;;;5.22;2.50;;;18.10;99.90;;;;;;5136502;27;20019;-73
2023/07/01 12:02:00;;;;;;;3.22;2.08;;;18.20;99.90;;;;;;5136152;27;20023;-73
2023/07/01 12:04:26;;;;;;;3.63;2.45;;;18.30;99.90;;;;;;5135800;27;20030;-72
2023/07/01 12:07:11;;;;;;;3.88;2.33;;;18.40;99.90;;;;;;5136178;27;20385;-73
2023/07/01 12:09:40;;;;;;;3.80;2.47;;;18.60;99.90;;;;;;5136046;27;20046;-73
2023/07/01 12:12:06;;;;;;;4.40;2.08;;;18.60;99.90;;;;;;5118418;27;20019;-73
2023/07/01 12:14:32;;;;;;;4.53;2.50;;;18.70;99.90;;;;;;5135724;27;20516;-73
2023/07/01 12:16:58;;;;;;;3.28;2.00;;;18.80;99.90;;;;;;5135725;27;20035;-72
2023/07/01 12:19:25;;;;;;;3.30;2.17;;;18.80;99.90;;;;;;5135594;27;20100;-72
2023/07/01 12:21:53;;;;;;;4.97;2.30;;;19.00;99.90;;;;;;5134423;27;20031;-72
2023/07/01 12:24:23;;;;;;;4.25;2.13;;;19.00;99.90;;;;;;5133273;27;20023;-72
2023/07/01 12:26:56;;;;;;;3.97;2.13;;;19.10;99.90;;;;;;5123497;27;20115;-72
2023/07/01 12:29:24;;;;;;;3.85;2.30;;;19.10;99.90;;;;;;5116167;27;20038;-72
2023/07/01 12:31:50;;;;;;;3.78;2.30;;;19.10;99.90;;;;;;5134463;27;20110;-72
2023/07/01 12:34:16;;;;;;;5.97;2.03;;;19.20;99.90;;;;;;5134777;27;20485;-72
2023/07/01 12:36:44;;;;;;;3.55;2.33;;;19.20;99.90;;;;;;5134665;27;20019;-73
2023/07/01 12:39:10;;;;;;;2.92;2.20;;;19.30;99.90;;;;;;5134149;27;20054;-72
2023/07/01 12:41:36;;;;;;;4.47;2.30;;;19.30;99.90;;;;;;5135648;27;20361;-73